sensor_id;sensor_type;location;lat;lon;timestamp;temperature;humidity
10512;DHT22;5304;48.604;2.096;2023-03-01T00:02:41;1.60;99.90
10512;DHT22;5304;48.604;2.096;2023-03-01T00:05:25;1.50;99.90
10512;DHT22;5304;48.604;2.096;2023-03-01T00:08:10;1.50;99.90
10512;DHT22;5304;48.604;2.096;2023-03-01T00:11:21;1.60;99.90
10512;DHT22;5304;48.604;2.096;2023-03-01T00:14:06;1.50;99.90
10512;DHT22;5304;48.604;2.096;2023-03-01T00:16:51;1.50;99.90
10512;DHT22;5304;48.604;2.096;2023-03-01T00:19:35;1.40;99.90
10512;DHT22;5304;48.604;2.096;2023-03-01T00:22:20;1.40;99.90
10512;DHT22;5304;48.604;2.096;2023-03-01T00:25:04;1.40;99.90
10512;DHT22;5304;48.604;2.096;2023-03-01T00:27:48;1.50;99.90
10512;DHT22;5304;48.604;2.096;2023-03-01T00:30:33;1.40;99.90
10512;DHT22;5304;48.604;2.096;2023-03-01T00:33:18;1.50;99.90
10512;DHT22;5304;48.604;2.096;2023-03-01T00:36:03;1.40;99.90
10512;DHT22;5304;48.604;2.096;2023-03-01T00:38:48;1.30;99.90
10512;DHT22;5304;48.604;2.096;2023-03-01T00:41:32;1.20;99.90
10512;DHT22;5304;48.604;2.096;2023-03-01T00:44:18;1.20;99.90
10512;DHT22;5304;48.604;2.096;2023-03-01T00:47:03;1.20;99.90
10512;DHT22;5304;48.604;2.096;2023-03-01T00:49:48;1.20;99.90
10512;DHT22;5304;48.604;2.096;2023-03-01T00:52:32;1.20;99.90
10512;DHT22;5304;48.604;2.096;2023-03-01T00:55:17;1.10;99.90
10512;DHT22;5304;48.604;2.096;2023-03-01T00:58:01;1.20;99.90
10512;DHT22;5304;48.604;2.096;2023-03-01T01:00:46;1.10;99.90
10512;DHT22;5304;48.604;2.096;2023-03-01T01:03:30;1.10;99.90
10512;DHT22;5304;48.604;2.096;2023-03-01T01:06:22;1.10;99.90
10512;DHT22;5304;48.604;2.096;2023-03-01T01:09:07;1.00;99.90
10512;DHT22;5304;48.604;2.096;2023-03-01T01:11:52;1.10;99.90
10512;DHT22;5304;48.604;2.096;2023-03-01T01:14:36;1.00;99.90
10512;DHT22;5304;48.604;2.096;2023-03-01T01:17:21;1.00;99.90
10512;DHT22;5304;48.604;2.096;2023-03-01T01:20:06;0.90;99.90
10512;DHT22;5304;48.604;2.096;2023-03-01T01:22:51;0.90;99.90
10512;DHT22;5304;48.604;2.096;2023-03-01T01:25:35;0.90;99.90
10512;DHT22;5304;48.604;2.096;2023-03-01T01:28:21;0.90;99.90
10512;DHT22;5304;48.604;2.096;2023-03-01T01:31:06;0.80;99.90
10512;DHT22;5304;48.604;2.096;2023-03-01T01:33:52;0.70;99.90
10512;DHT22;5304;48.604;2.096;2023-03-01T01:36:37;0.60;99.90
10512;DHT22;5304;48.604;2.096;2023-03-01T01:39:22;0.60;99.90
10512;DHT22;5304;48.604;2.096;2023-03-01T01:42:13;0.60;99.90
10512;DHT22;5304;48.604;2.096;2023-03-01T01:45:25;0.60;99.90
10512;DHT22;5304;48.604;2.096;2023-03-01T01:48:13;0.60;99.90
10512;DHT22;5304;48.604;2.096;2023-03-01T01:51:00;0.60;99.90
10512;DHT22;5304;48.604;2.096;2023-03-01T01:53:48;0.60;99.90
10512;DHT22;5304;48.604;2.096;2023-03-01T01:56:37;0.60;99.90
10512;DHT22;5304;48.604;2.096;2023-03-01T01:59:24;0.50;99.90
10512;DHT22;5304;48.604;2.096;2023-03-01T02:02:09;0.40;99.90
10512;DHT22;5304;48.604;2.096;2023-03-01T02:05:06;0.40;99.90
10512;DHT22;5304;48.604;2.096;2023-03-01T02:07:56;0.40;99.90
10512;DHT22;5304;48.604;2.096;2023-03-01T02:10:41;0.40;99.90
10512;DHT22;5304;48.604;2.096;2023-03-01T02:13:31;0.40;99.90
10512;DHT22;5304;48.604;2.096;2023-03-01T02:16:17;0.40;99.90
10512;DHT22;5304;48.604;2.096;2023-03-01T02:19:03;0.40;99.90
10512;DHT22;5304;48.604;2.096;2023-03-01T02:30:42;0.30;99.90
10512;DHT22;5304;48.604;2.096;2023-03-01T02:33:47;0.30;99.90
10512;DHT22;5304;48.604;2.096;2023-03-01T02:36:50;0.30;99.90
10512;DHT22;5304;48.604;2.096;2023-03-01T02:39:40;0.20;99.90
10512;DHT22;5304;48.604;2.096;2023-03-01T02:42:31;0.20;99.90
10512;DHT22;5304;48.604;2.096;2023-03-01T02:45:18;0.20;99.90
10512;DHT22;5304;48.604;2.096;2023-03-01T02:48:02;0.20;99.90
10512;DHT22;5304;48.604;2.096;2023-03-01T02:54:42;0.10;99.90
10512;DHT22;5304;48.604;2.096;2023-03-01T02:57:32;0.10;99.90
10512;DHT22;5304;48.604;2.096;2023-03-01T03:00:28;0.10;99.90
10512;DHT22;5304;48.604;2.096;2023-03-01T03:03:15;-0.10;99.90
10512;DHT22;5304;48.604;2.096;2023-03-01T03:06:00;-0.10;99.90
10512;DHT22;5304;48.604;2.096;2023-03-01T03:08:45;-0.10;99.90
10512;DHT22;5304;48.604;2.096;2023-03-01T03:11:29;-0.20;99.90
10512;DHT22;5304;48.604;2.096;2023-03-01T03:14:16;-0.20;99.90
10512;DHT22;5304;48.604;2.096;2023-03-01T03:17:00;-0.30;99.90
10512;DHT22;5304;48.604;2.096;2023-03-01T03:19:44;-0.30;99.90
10512;DHT22;5304;48.604;2.096;2023-03-01T03:22:29;-0.40;99.90
10512;DHT22;5304;48.604;2.096;2023-03-01T03:25:13;-0.40;99.90
10512;DHT22;5304;48.604;2.096;2023-03-01T03:27:58;-0.40;99.90
10512;DHT22;5304;48.604;2.096;2023-03-01T03:30:46;-0.30;99.90
10512;DHT22;5304;48.604;2.096;2023-03-01T03:33:31;-0.30;99.90
10512;DHT22;5304;48.604;2.096;2023-03-01T03:36:22;-0.30;99.90
10512;DHT22;5304;48.604;2.096;2023-03-01T03:39:06;-0.40;99.90
10512;DHT22;5304;48.604;2.096;2023-03-01T03:41:52;-0.40;99.90
10512;DHT22;5304;48.604;2.096;2023-03-01T03:44:36;-0.40;99.90
10512;DHT22;5304;48.604;2.096;2023-03-01T03:47:21;-0.40;99.90
10512;DHT22;5304;48.604;2.096;2023-03-01T03:50:05;-0.40;99.90
10512;DHT22;5304;48.604;2.096;2023-03-01T03:52:50;-0.40;99.90
10512;DHT22;5304;48.604;2.096;2023-03-01T03:55:35;-0.40;99.90
10512;DHT22;5304;48.604;2.096;2023-03-01T03:58:23;-0.40;99.90
10512;DHT22;5304;48.604;2.096;2023-03-01T04:01:08;-0.50;99.90
10512;DHT22;5304;48.604;2.096;2023-03-01T04:03:53;-0.50;99.90
10512;DHT22;5304;48.604;2.096;2023-03-01T04:06:38;-0.60;99.90
10512;DHT22;5304;48.604;2.096;2023-03-01T04:09:23;-0.50;99.90
10512;DHT22;5304;48.604;2.096;2023-03-01T04:12:08;-0.50;99.90
10512;DHT22;5304;48.604;2.096;2023-03-01T04:14:52;-0.60;99.90
10512;DHT22;5304;48.604;2.096;2023-03-01T04:17:37;-0.50;99.90
10512;DHT22;5304;48.604;2.096;2023-03-01T04:20:27;-0.50;99.90
10512;DHT22;5304;48.604;2.096;2023-03-01T04:23:15;-0.60;99.90
10512;DHT22;5304;48.604;2.096;2023-03-01T04:26:00;-0.60;99.90
10512;DHT22;5304;48.604;2.096;2023-03-01T04:28:45;-0.60;99.90
10512;DHT22;5304;48.604;2.096;2023-03-01T04:31:32;-0.60;99.90
10512;DHT22;5304;48.604;2.096;2023-03-01T04:34:16;-0.60;99.90
10512;DHT22;5304;48.604;2.096;2023-03-01T04:37:01;-0.60;99.90
10512;DHT22;5304;48.604;2.096;2023-03-01T04:39:45;-0.60;99.90
10512;DHT22;5304;48.604;2.096;2023-03-01T04:42:30;-0.70;99.90
10512;DHT22;5304;48.604;2.096;2023-03-01T04:45:14;-0.70;99.90
10512;DHT22;5304;48.604;2.096;2023-03-01T04:47:59;-0.80;99.90
10512;DHT22;5304;48.604;2.096;2023-03-01T04:50:43;-0.90;99.90
10512;DHT22;5304;48.604;2.096;2023-03-01T04:53:28;-0.90;99.90
10512;DHT22;5304;48.604;2.096;2023-03-01T04:56:13;-0.90;99.90
10512;DHT22;5304;48.604;2.096;2023-03-01T04:58:58;-0.90;99.90
10512;DHT22;5304;48.604;2.096;2023-03-01T05:01:42;-0.90;99.90
10512;DHT22;5304;48.604;2.096;2023-03-01T05:04:27;-0.90;99.90
10512;DHT22;5304;48.604;2.096;2023-03-01T05:07:12;-0.90;99.90
10512;DHT22;5304;48.604;2.096;2023-03-01T05:09:57;-0.90;99.90
10512;DHT22;5304;48.604;2.096;2023-03-01T05:12:41;-1.00;99.90
10512;DHT22;5304;48.604;2.096;2023-03-01T05:15:31;-1.00;99.90
10512;DHT22;5304;48.604;2.096;2023-03-01T05:18:16;-1.10;99.90
10512;DHT22;5304;48.604;2.096;2023-03-01T05:21:04;-1.00;99.90
10512;DHT22;5304;48.604;2.096;2023-03-01T05:23:49;-1.00;99.90
10512;DHT22;5304;48.604;2.096;2023-03-01T05:26:33;-1.00;99.90
10512;DHT22;5304;48.604;2.096;2023-03-01T05:29:19;-1.10;99.90
10512;DHT22;5304;48.604;2.096;2023-03-01T05:32:08;-1.10;99.90
10512;DHT22;5304;48.604;2.096;2023-03-01T05:34:53;-1.00;99.90
10512;DHT22;5304;48.604;2.096;2023-03-01T05:37:46;-1.10;99.90
10512;DHT22;5304;48.604;2.096;2023-03-01T05:40:33;-1.00;99.90
10512;DHT22;5304;48.604;2.096;2023-03-01T05:43:18;-1.10;99.90
10512;DHT22;5304;48.604;2.096;2023-03-01T05:46:02;-1.10;99.90
10512;DHT22;5304;48.604;2.096;2023-03-01T05:48:47;-1.10;99.90
10512;DHT22;5304;48.604;2.096;2023-03-01T05:51:32;-1.10;99.90
10512;DHT22;5304;48.604;2.096;2023-03-01T05:54:18;-1.00;99.90
10512;DHT22;5304;48.604;2.096;2023-03-01T05:57:03;-1.10;99.90
10512;DHT22;5304;48.604;2.096;2023-03-01T05:59:47;-1.10;99.90
10512;DHT22;5304;48.604;2.096;2023-03-01T06:02:32;-1.10;99.90
10512;DHT22;5304;48.604;2.096;2023-03-01T06:05:16;-1.10;99.90
10512;DHT22;5304;48.604;2.096;2023-03-01T06:08:02;-1.00;99.90
10512;DHT22;5304;48.604;2.096;2023-03-01T06:10:47;-1.00;99.90
10512;DHT22;5304;48.604;2.096;2023-03-01T06:13:32;-1.00;99.90
10512;DHT22;5304;48.604;2.096;2023-03-01T06:16:16;-1.00;99.90
10512;DHT22;5304;48.604;2.096;2023-03-01T06:19:01;-1.00;99.90
10512;DHT22;5304;48.604;2.096;2023-03-01T06:21:45;-0.90;99.90
10512;DHT22;5304;48.604;2.096;2023-03-01T06:24:30;-1.00;99.90
10512;DHT22;5304;48.604;2.096;2023-03-01T06:27:14;-0.90;99.90
10512;DHT22;5304;48.604;2.096;2023-03-01T06:29:59;-0.80;99.90
10512;DHT22;5304;48.604;2.096;2023-03-01T06:32:44;-0.80;99.90
10512;DHT22;5304;48.604;2.096;2023-03-01T06:35:30;-0.80;99.90
10512;DHT22;5304;48.604;2.096;2023-03-01T06:38:15;-0.80;99.90
10512;DHT22;5304;48.604;2.096;2023-03-01T06:41:01;-0.80;99.90
10512;DHT22;5304;48.604;2.096;2023-03-01T06:43:46;-0.80;99.90
10512;DHT22;5304;48.604;2.096;2023-03-01T06:46:31;-0.80;99.90
10512;DHT22;5304;48.604;2.096;2023-03-01T06:49:15;-0.80;99.90
10512;DHT22;5304;48.604;2.096;2023-03-01T06:52:02;-0.70;99.90
10512;DHT22;5304;48.604;2.096;2023-03-01T06:54:46;-0.60;99.90
10512;DHT22;5304;48.604;2.096;2023-03-01T06:57:32;-0.60;99.90
10512;DHT22;5304;48.604;2.096;2023-03-01T07:00:17;-0.70;99.90
10512;DHT22;5304;48.604;2.096;2023-03-01T07:03:01;-0.70;99.90
10512;DHT22;5304;48.604;2.096;2023-03-01T07:05:49;-0.60;99.90
10512;DHT22;5304;48.604;2.096;2023-03-01T07:08:33;-0.60;99.90
10512;DHT22;5304;48.604;2.096;2023-03-01T07:11:18;-0.50;99.90
10512;DHT22;5304;48.604;2.096;2023-03-01T07:14:02;-0.50;99.90
10512;DHT22;5304;48.604;2.096;2023-03-01T07:16:47;-0.50;99.90
10512;DHT22;5304;48.604;2.096;2023-03-01T07:19:31;-0.40;99.90
10512;DHT22;5304;48.604;2.096;2023-03-01T07:22:16;-0.30;99.90
10512;DHT22;5304;48.604;2.096;2023-03-01T07:25:01;-0.30;99.90
10512;DHT22;5304;48.604;2.096;2023-03-01T07:27:50;-0.30;99.90
10512;DHT22;5304;48.604;2.096;2023-03-01T07:30:35;-0.30;99.90
10512;DHT22;5304;48.604;2.096;2023-03-01T07:33:20;-0.20;99.90
10512;DHT22;5304;48.604;2.096;2023-03-01T07:36:04;-0.10;99.90
10512;DHT22;5304;48.604;2.096;2023-03-01T07:38:50;-0.10;99.90
10512;DHT22;5304;48.604;2.096;2023-03-01T07:41:34;0.00;99.90
10512;DHT22;5304;48.604;2.096;2023-03-01T07:44:19;0.10;99.90
10512;DHT22;5304;48.604;2.096;2023-03-01T07:47:04;0.10;99.90
10512;DHT22;5304;48.604;2.096;2023-03-01T07:49:49;0.20;99.90
10512;DHT22;5304;48.604;2.096;2023-03-01T07:52:33;0.30;99.90
10512;DHT22;5304;48.604;2.096;2023-03-01T07:55:18;0.60;99.90
10512;DHT22;5304;48.604;2.096;2023-03-01T07:58:03;1.00;99.90
10512;DHT22;5304;48.604;2.096;2023-03-01T08:00:48;1.40;99.90
10512;DHT22;5304;48.604;2.096;2023-03-01T08:03:33;1.90;99.90
10512;DHT22;5304;48.604;2.096;2023-03-01T08:06:18;1.90;99.90
10512;DHT22;5304;48.604;2.096;2023-03-01T08:09:02;2.40;99.90
10512;DHT22;5304;48.604;2.096;2023-03-01T08:11:46;2.70;99.90
10512;DHT22;5304;48.604;2.096;2023-03-01T08:14:32;2.80;99.90
10512;DHT22;5304;48.604;2.096;2023-03-01T08:17:16;3.00;99.90
10512;DHT22;5304;48.604;2.096;2023-03-01T08:20:01;3.10;99.90
10512;DHT22;5304;48.604;2.096;2023-03-01T08:22:48;3.30;99.90
10512;DHT22;5304;48.604;2.096;2023-03-01T08:25:32;3.40;99.90
10512;DHT22;5304;48.604;2.096;2023-03-01T08:28:16;3.40;99.90
10512;DHT22;5304;48.604;2.096;2023-03-01T08:31:01;3.50;99.90
10512;DHT22;5304;48.604;2.096;2023-03-01T08:33:47;3.80;99.90
10512;DHT22;5304;48.604;2.096;2023-03-01T08:36:40;4.40;99.90
10512;DHT22;5304;48.604;2.096;2023-03-01T08:39:25;5.80;99.90
10512;DHT22;5304;48.604;2.096;2023-03-01T08:42:09;6.80;99.90
10512;DHT22;5304;48.604;2.096;2023-03-01T08:44:54;7.50;99.90
10512;DHT22;5304;48.604;2.096;2023-03-01T08:47:38;8.30;99.90
10512;DHT22;5304;48.604;2.096;2023-03-01T08:50:23;8.60;99.90
10512;DHT22;5304;48.604;2.096;2023-03-01T08:53:08;8.60;99.90
10512;DHT22;5304;48.604;2.096;2023-03-01T08:55:52;8.50;99.90
10512;DHT22;5304;48.604;2.096;2023-03-01T08:58:37;8.60;99.90
10512;DHT22;5304;48.604;2.096;2023-03-01T09:01:22;8.90;99.90
10512;DHT22;5304;48.604;2.096;2023-03-01T09:04:06;9.40;99.90
10512;DHT22;5304;48.604;2.096;2023-03-01T09:06:50;9.00;99.90
10512;DHT22;5304;48.604;2.096;2023-03-01T09:09:35;9.10;99.90
10512;DHT22;5304;48.604;2.096;2023-03-01T09:12:19;9.40;99.90
10512;DHT22;5304;48.604;2.096;2023-03-01T09:15:04;9.50;99.90
10512;DHT22;5304;48.604;2.096;2023-03-01T09:17:49;9.40;99.90
10512;DHT22;5304;48.604;2.096;2023-03-01T09:20:33;9.80;99.90
10512;DHT22;5304;48.604;2.096;2023-03-01T09:23:18;9.80;99.90
10512;DHT22;5304;48.604;2.096;2023-03-01T09:26:03;9.80;99.90
10512;DHT22;5304;48.604;2.096;2023-03-01T09:28:51;10.10;99.90
10512;DHT22;5304;48.604;2.096;2023-03-01T09:31:36;9.70;99.90
10512;DHT22;5304;48.604;2.096;2023-03-01T09:34:21;9.30;99.90
10512;DHT22;5304;48.604;2.096;2023-03-01T09:37:07;8.60;99.90
10512;DHT22;5304;48.604;2.096;2023-03-01T09:39:51;8.10;99.90
10512;DHT22;5304;48.604;2.096;2023-03-01T09:42:53;7.90;99.90
10512;DHT22;5304;48.604;2.096;2023-03-01T09:45:41;7.60;99.90
10512;DHT22;5304;48.604;2.096;2023-03-01T09:48:49;8.10;99.90
10512;DHT22;5304;48.604;2.096;2023-03-01T09:51:35;7.60;99.90
10512;DHT22;5304;48.604;2.096;2023-03-01T09:54:20;7.60;99.90
10512;DHT22;5304;48.604;2.096;2023-03-01T10:00:24;7.30;99.90
10512;DHT22;5304;48.604;2.096;2023-03-01T10:03:31;7.20;99.90
10512;DHT22;5304;48.604;2.096;2023-03-01T10:06:21;6.80;99.90
10512;DHT22;5304;48.604;2.096;2023-03-01T10:09:15;6.40;99.90
10512;DHT22;5304;48.604;2.096;2023-03-01T10:12:02;6.40;99.90
10512;DHT22;5304;48.604;2.096;2023-03-01T10:14:59;6.40;99.90
10512;DHT22;5304;48.604;2.096;2023-03-01T10:18:00;6.50;99.90
10512;DHT22;5304;48.604;2.096;2023-03-01T10:20:59;6.70;99.90
10512;DHT22;5304;48.604;2.096;2023-03-01T10:23:44;6.70;99.90
10512;DHT22;5304;48.604;2.096;2023-03-01T10:29:34;6.40;99.90
10512;DHT22;5304;48.604;2.096;2023-03-01T10:32:21;6.50;99.90
10512;DHT22;5304;48.604;2.096;2023-03-01T10:35:21;6.60;99.90
10512;DHT22;5304;48.604;2.096;2023-03-01T10:38:09;6.60;99.90
10512;DHT22;5304;48.604;2.096;2023-03-01T10:43:51;6.60;99.90
10512;DHT22;5304;48.604;2.096;2023-03-01T10:46:37;6.70;99.90
10512;DHT22;5304;48.604;2.096;2023-03-01T10:49:23;6.80;99.90
10512;DHT22;5304;48.604;2.096;2023-03-01T10:52:21;6.90;99.90
10512;DHT22;5304;48.604;2.096;2023-03-01T10:55:30;7.10;99.90
10512;DHT22;5304;48.604;2.096;2023-03-01T10:58:18;7.60;99.90
10512;DHT22;5304;48.604;2.096;2023-03-01T11:01:05;7.80;99.90
10512;DHT22;5304;48.604;2.096;2023-03-01T11:04:23;7.90;99.90
10512;DHT22;5304;48.604;2.096;2023-03-01T11:07:07;7.70;99.90
10512;DHT22;5304;48.604;2.096;2023-03-01T11:09:51;8.00;99.90
10512;DHT22;5304;48.604;2.096;2023-03-01T11:12:36;8.20;99.90
10512;DHT22;5304;48.604;2.096;2023-03-01T11:15:28;8.30;99.90
10512;DHT22;5304;48.604;2.096;2023-03-01T11:18:22;8.20;99.90
10512;DHT22;5304;48.604;2.096;2023-03-01T11:21:07;8.00;99.90
10512;DHT22;5304;48.604;2.096;2023-03-01T11:23:52;7.80;99.90
10512;DHT22;5304;48.604;2.096;2023-03-01T11:26:41;7.70;99.90
10512;DHT22;5304;48.604;2.096;2023-03-01T11:29:35;7.80;99.90
10512;DHT22;5304;48.604;2.096;2023-03-01T11:32:24;7.80;99.90
10512;DHT22;5304;48.604;2.096;2023-03-01T11:35:19;7.70;99.90
10512;DHT22;5304;48.604;2.096;2023-03-01T11:38:26;7.60;99.90
10512;DHT22;5304;48.604;2.096;2023-03-01T11:41:20;7.30;99.90
10512;DHT22;5304;48.604;2.096;2023-03-01T11:44:20;7.40;99.90
10512;DHT22;5304;48.604;2.096;2023-03-01T11:47:31;7.70;99.90
10512;DHT22;5304;48.604;2.096;2023-03-01T11:50:25;7.90;99.90
10512;DHT22;5304;48.604;2.096;2023-03-01T11:53:26;8.00;99.90
10512;DHT22;5304;48.604;2.096;2023-03-01T11:56:54;8.20;99.90
10512;DHT22;5304;48.604;2.096;2023-03-01T12:08:52;8.20;99.90
10512;DHT22;5304;48.604;2.096;2023-03-01T12:15:29;7.80;99.90
10512;DHT22;5304;48.604;2.096;2023-03-01T12:21:35;7.80;99.90
10512;DHT22;5304;48.604;2.096;2023-03-01T12:24:46;7.70;99.90
10512;DHT22;5304;48.604;2.096;2023-03-01T12:28:17;7.60;99.90
10512;DHT22;5304;48.604;2.096;2023-03-01T12:37:13;7.40;99.90
10512;DHT22;5304;48.604;2.096;2023-03-01T12:49:53;7.10;99.90
10512;DHT22;5304;48.604;2.096;2023-03-01T12:52:46;6.90;99.90
10512;DHT22;5304;48.604;2.096;2023-03-01T12:55:40;7.00;99.90
10512;DHT22;5304;48.604;2.096;2023-03-01T13:07:36;7.10;99.90
10512;DHT22;5304;48.604;2.096;2023-03-01T13:13:25;7.10;99.90
10512;DHT22;5304;48.604;2.096;2023-03-01T13:16:39;7.30;99.90
10512;DHT22;5304;48.604;2.096;2023-03-01T13:19:26;7.30;99.90
10512;DHT22;5304;48.604;2.096;2023-03-01T13:22:28;7.20;99.90
10512;DHT22;5304;48.604;2.096;2023-03-01T13:25:16;7.20;99.90
10512;DHT22;5304;48.604;2.096;2023-03-01T13:34:40;7.10;99.90
10512;DHT22;5304;48.604;2.096;2023-03-01T13:37:36;7.10;99.90
10512;DHT22;5304;48.604;2.096;2023-03-01T13:43:34;7.20;99.90
10512;DHT22;5304;48.604;2.096;2023-03-01T13:46:23;7.10;99.90
10512;DHT22;5304;48.604;2.096;2023-03-01T13:49:16;7.10;99.90
10512;DHT22;5304;48.604;2.096;2023-03-01T13:52:02;7.20;99.90
10512;DHT22;5304;48.604;2.096;2023-03-01T13:54:47;7.30;99.90
10512;DHT22;5304;48.604;2.096;2023-03-01T13:57:34;7.40;99.90
10512;DHT22;5304;48.604;2.096;2023-03-01T14:00:26;7.40;99.90
10512;DHT22;5304;48.604;2.096;2023-03-01T14:03:19;7.40;99.90
10512;DHT22;5304;48.604;2.096;2023-03-01T14:06:09;7.60;99.90
10512;DHT22;5304;48.604;2.096;2023-03-01T14:09:15;7.60;99.90
10512;DHT22;5304;48.604;2.096;2023-03-01T14:12:46;7.40;99.90
10512;DHT22;5304;48.604;2.096;2023-03-01T14:15:42;7.50;99.90
10512;DHT22;5304;48.604;2.096;2023-03-01T14:18:40;7.60;99.90
10512;DHT22;5304;48.604;2.096;2023-03-01T14:21:27;7.80;99.90
10512;DHT22;5304;48.604;2.096;2023-03-01T14:24:21;7.80;99.90
10512;DHT22;5304;48.604;2.096;2023-03-01T14:27:11;7.70;99.90
10512;DHT22;5304;48.604;2.096;2023-03-01T14:30:10;7.70;99.90
10512;DHT22;5304;48.604;2.096;2023-03-01T14:33:01;7.70;99.90
10512;DHT22;5304;48.604;2.096;2023-03-01T14:36:12;7.50;99.90
10512;DHT22;5304;48.604;2.096;2023-03-01T14:38:56;7.50;99.90
10512;DHT22;5304;48.604;2.096;2023-03-01T14:41:49;7.50;99.90
10512;DHT22;5304;48.604;2.096;2023-03-01T14:44:35;7.60;99.90
10512;DHT22;5304;48.604;2.096;2023-03-01T14:47:35;7.50;99.90
10512;DHT22;5304;48.604;2.096;2023-03-01T14:50:29;7.50;99.90
10512;DHT22;5304;48.604;2.096;2023-03-01T14:56:02;7.50;99.90
10512;DHT22;5304;48.604;2.096;2023-03-01T14:58:51;7.50;99.90
10512;DHT22;5304;48.604;2.096;2023-03-01T15:01:35;7.50;99.90
10512;DHT22;5304;48.604;2.096;2023-03-01T15:04:21;7.60;99.90
10512;DHT22;5304;48.604;2.096;2023-03-01T15:07:09;7.60;99.90
10512;DHT22;5304;48.604;2.096;2023-03-01T15:09:57;7.70;99.90
10512;DHT22;5304;48.604;2.096;2023-03-01T15:12:42;7.60;99.90
10512;DHT22;5304;48.604;2.096;2023-03-01T15:15:35;7.60;99.90
10512;DHT22;5304;48.604;2.096;2023-03-01T15:18:22;7.50;99.90
10512;DHT22;5304;48.604;2.096;2023-03-01T15:21:19;7.40;99.90
10512;DHT22;5304;48.604;2.096;2023-03-01T15:27:00;7.40;99.90
10512;DHT22;5304;48.604;2.096;2023-03-01T15:29:53;7.40;99.90
10512;DHT22;5304;48.604;2.096;2023-03-01T15:32:39;7.30;99.90
10512;DHT22;5304;48.604;2.096;2023-03-01T15:35:43;7.30;99.90
10512;DHT22;5304;48.604;2.096;2023-03-01T15:38:31;7.30;99.90
10512;DHT22;5304;48.604;2.096;2023-03-01T15:41:27;7.40;99.90
10512;DHT22;5304;48.604;2.096;2023-03-01T15:44:28;7.40;99.90
10512;DHT22;5304;48.604;2.096;2023-03-01T15:47:28;7.30;99.90
10512;DHT22;5304;48.604;2.096;2023-03-01T15:50:25;7.30;99.90
10512;DHT22;5304;48.604;2.096;2023-03-01T15:53:13;7.20;99.90
10512;DHT22;5304;48.604;2.096;2023-03-01T15:55:59;7.20;99.90
10512;DHT22;5304;48.604;2.096;2023-03-01T15:58:45;7.20;99.90
10512;DHT22;5304;48.604;2.096;2023-03-01T16:01:31;7.10;99.90
10512;DHT22;5304;48.604;2.096;2023-03-01T16:04:19;7.10;99.90
10512;DHT22;5304;48.604;2.096;2023-03-01T16:07:08;7.00;99.90
10512;DHT22;5304;48.604;2.096;2023-03-01T16:09:53;7.10;99.90
10512;DHT22;5304;48.604;2.096;2023-03-01T16:12:38;7.00;99.90
10512;DHT22;5304;48.604;2.096;2023-03-01T16:15:24;7.00;99.90
10512;DHT22;5304;48.604;2.096;2023-03-01T16:18:09;6.90;99.90
10512;DHT22;5304;48.604;2.096;2023-03-01T16:20:55;6.80;99.90
10512;DHT22;5304;48.604;2.096;2023-03-01T16:23:40;6.70;99.90
10512;DHT22;5304;48.604;2.096;2023-03-01T16:26:24;6.60;99.90
10512;DHT22;5304;48.604;2.096;2023-03-01T16:29:09;6.60;99.90
10512;DHT22;5304;48.604;2.096;2023-03-01T16:31:54;6.60;99.90
10512;DHT22;5304;48.604;2.096;2023-03-01T16:34:38;6.60;99.90
10512;DHT22;5304;48.604;2.096;2023-03-01T16:37:23;6.50;99.90
10512;DHT22;5304;48.604;2.096;2023-03-01T16:40:23;6.40;99.90
10512;DHT22;5304;48.604;2.096;2023-03-01T16:43:08;6.30;99.90
10512;DHT22;5304;48.604;2.096;2023-03-01T16:45:53;6.30;99.90
10512;DHT22;5304;48.604;2.096;2023-03-01T16:48:38;6.20;99.90
10512;DHT22;5304;48.604;2.096;2023-03-01T16:51:24;6.20;99.90
10512;DHT22;5304;48.604;2.096;2023-03-01T16:54:09;6.20;99.90
10512;DHT22;5304;48.604;2.096;2023-03-01T16:56:55;6.00;99.90
10512;DHT22;5304;48.604;2.096;2023-03-01T16:59:39;6.00;99.90
10512;DHT22;5304;48.604;2.096;2023-03-01T17:02:24;5.90;99.90
10512;DHT22;5304;48.604;2.096;2023-03-01T17:05:09;5.90;99.90
10512;DHT22;5304;48.604;2.096;2023-03-01T17:07:56;5.80;99.90
10512;DHT22;5304;48.604;2.096;2023-03-01T17:10:41;5.80;99.90
10512;DHT22;5304;48.604;2.096;2023-03-01T17:13:27;5.80;99.90
10512;DHT22;5304;48.604;2.096;2023-03-01T17:16:14;5.70;99.90
10512;DHT22;5304;48.604;2.096;2023-03-01T17:18:58;5.60;99.90
10512;DHT22;5304;48.604;2.096;2023-03-01T17:21:44;5.50;99.90
10512;DHT22;5304;48.604;2.096;2023-03-01T17:24:32;5.50;99.90
10512;DHT22;5304;48.604;2.096;2023-03-01T17:27:17;5.40;99.90
10512;DHT22;5304;48.604;2.096;2023-03-01T17:30:04;5.40;99.90
10512;DHT22;5304;48.604;2.096;2023-03-01T17:32:48;5.30;99.90
10512;DHT22;5304;48.604;2.096;2023-03-01T17:35:33;5.30;99.90
10512;DHT22;5304;48.604;2.096;2023-03-01T17:38:20;5.20;99.90
10512;DHT22;5304;48.604;2.096;2023-03-01T17:41:04;5.10;99.90
10512;DHT22;5304;48.604;2.096;2023-03-01T17:43:49;5.00;99.90
10512;DHT22;5304;48.604;2.096;2023-03-01T17:46:34;4.90;99.90
10512;DHT22;5304;48.604;2.096;2023-03-01T17:49:19;4.90;99.90
10512;DHT22;5304;48.604;2.096;2023-03-01T17:52:03;4.90;99.90
10512;DHT22;5304;48.604;2.096;2023-03-01T17:54:48;4.80;99.90
10512;DHT22;5304;48.604;2.096;2023-03-01T17:57:33;4.70;99.90
10512;DHT22;5304;48.604;2.096;2023-03-01T18:00:18;4.60;99.90
10512;DHT22;5304;48.604;2.096;2023-03-01T18:03:04;4.60;99.90
10512;DHT22;5304;48.604;2.096;2023-03-01T18:05:48;4.50;99.90
10512;DHT22;5304;48.604;2.096;2023-03-01T18:08:33;4.50;99.90
10512;DHT22;5304;48.604;2.096;2023-03-01T18:11:18;4.50;99.90
10512;DHT22;5304;48.604;2.096;2023-03-01T18:14:03;4.40;99.90
10512;DHT22;5304;48.604;2.096;2023-03-01T18:16:48;4.30;99.90
10512;DHT22;5304;48.604;2.096;2023-03-01T18:19:32;4.30;99.90
10512;DHT22;5304;48.604;2.096;2023-03-01T18:22:17;4.20;99.90
10512;DHT22;5304;48.604;2.096;2023-03-01T18:25:01;4.20;99.90
10512;DHT22;5304;48.604;2.096;2023-03-01T18:27:45;4.10;99.90
10512;DHT22;5304;48.604;2.096;2023-03-01T18:30:30;4.00;99.90
10512;DHT22;5304;48.604;2.096;2023-03-01T18:33:15;3.90;99.90
10512;DHT22;5304;48.604;2.096;2023-03-01T18:36:00;3.90;99.90
10512;DHT22;5304;48.604;2.096;2023-03-01T18:38:45;3.90;99.90
10512;DHT22;5304;48.604;2.096;2023-03-01T18:41:31;3.80;99.90
10512;DHT22;5304;48.604;2.096;2023-03-01T18:44:16;3.70;99.90
10512;DHT22;5304;48.604;2.096;2023-03-01T18:47:01;3.70;99.90
10512;DHT22;5304;48.604;2.096;2023-03-01T18:49:45;3.60;99.90
10512;DHT22;5304;48.604;2.096;2023-03-01T18:52:30;3.70;99.90
10512;DHT22;5304;48.604;2.096;2023-03-01T18:55:14;3.50;99.90
10512;DHT22;5304;48.604;2.096;2023-03-01T18:57:59;3.50;99.90
10512;DHT22;5304;48.604;2.096;2023-03-01T19:00:43;3.50;99.90
10512;DHT22;5304;48.604;2.096;2023-03-01T19:03:30;3.30;99.90
10512;DHT22;5304;48.604;2.096;2023-03-01T19:06:15;3.20;99.90
10512;DHT22;5304;48.604;2.096;2023-03-01T19:09:00;3.20;99.90
10512;DHT22;5304;48.604;2.096;2023-03-01T19:11:44;3.20;99.90
10512;DHT22;5304;48.604;2.096;2023-03-01T19:14:29;3.10;99.90
10512;DHT22;5304;48.604;2.096;2023-03-01T19:17:13;3.10;99.90
10512;DHT22;5304;48.604;2.096;2023-03-01T19:19:58;3.10;99.90
10512;DHT22;5304;48.604;2.096;2023-03-01T19:22:44;3.00;99.90
10512;DHT22;5304;48.604;2.096;2023-03-01T19:25:28;3.00;99.90
10512;DHT22;5304;48.604;2.096;2023-03-01T19:28:13;3.10;99.90
10512;DHT22;5304;48.604;2.096;2023-03-01T19:31:09;3.10;99.90
10512;DHT22;5304;48.604;2.096;2023-03-01T19:33:54;3.10;99.90